sensor_id;sensor_type;location;lat;lon;timestamp;P1;durP1;ratioP1;P2;durP2;ratioP2
20988;SDS011;10653;47.052;15.410;2023-05-13T00:00:36;3.57;;;3.03;;
20988;SDS011;10653;47.052;15.410;2023-05-13T00:03:02;2.87;;;2.67;;
20988;SDS011;10653;47.052;15.410;2023-05-13T00:05:28;2.90;;;2.63;;
20988;SDS011;10653;47.052;15.410;2023-05-13T00:07:55;3.40;;;2.87;;
20988;SDS011;10653;47.052;15.410;2023-05-13T00:10:21;2.67;;;2.47;;
20988;SDS011;10653;47.052;15.410;2023-05-13T00:12:47;3.00;;;2.80;;
20988;SDS011;10653;47.052;15.410;2023-05-13T00:15:13;2.37;;;2.17;;
20988;SDS011;10653;47.052;15.410;2023-05-13T00:17:39;1.70;;;1.60;;
20988;SDS011;10653;47.052;15.410;2023-05-13T00:20:05;2.53;;;2.33;;
20988;SDS011;10653;47.052;15.410;2023-05-13T00:22:31;1.93;;;1.83;;
20988;SDS011;10653;47.052;15.410;2023-05-13T00:24:57;2.17;;;1.97;;
20988;SDS011;10653;47.052;15.410;2023-05-13T00:27:23;2.00;;;1.90;;
20988;SDS011;10653;47.052;15.410;2023-05-13T00:29:49;2.80;;;2.07;;
20988;SDS011;10653;47.052;15.410;2023-05-13T00:32:15;2.67;;;2.00;;
20988;SDS011;10653;47.052;15.410;2023-05-13T00:34:41;1.90;;;1.80;;
20988;SDS011;10653;47.052;15.410;2023-05-13T00:37:07;1.47;;;1.37;;
20988;SDS011;10653;47.052;15.410;2023-05-13T00:39:35;2.63;;;2.10;;
20988;SDS011;10653;47.052;15.410;2023-05-13T00:42:01;1.70;;;1.60;;
20988;SDS011;10653;47.052;15.410;2023-05-13T00:44:29;2.70;;;2.30;;
20988;SDS011;10653;47.052;15.410;2023-05-13T00:46:55;2.00;;;1.90;;
20988;SDS011;10653;47.052;15.410;2023-05-13T00:49:21;2.27;;;2.07;;
20988;SDS011;10653;47.052;15.410;2023-05-13T00:51:47;1.67;;;1.57;;
20988;SDS011;10653;47.052;15.410;2023-05-13T00:54:14;2.27;;;2.03;;
20988;SDS011;10653;47.052;15.410;2023-05-13T00:56:40;1.60;;;1.50;;
20988;SDS011;10653;47.052;15.410;2023-05-13T00:59:06;1.70;;;1.60;;
20988;SDS011;10653;47.052;15.410;2023-05-13T01:14:50;1.70;;;1.30;;
20988;SDS011;10653;47.052;15.410;2023-05-13T01:17:17;1.50;;;1.40;;
20988;SDS011;10653;47.052;15.410;2023-05-13T01:19:46;1.73;;;1.43;;
20988;SDS011;10653;47.052;15.410;2023-05-13T01:22:14;1.53;;;1.40;;
20988;SDS011;10653;47.052;15.410;2023-05-13T01:24:40;2.03;;;1.90;;
20988;SDS011;10653;47.052;15.410;2023-05-13T01:27:06;2.30;;;1.67;;
20988;SDS011;10653;47.052;15.410;2023-05-13T01:29:32;2.47;;;1.57;;
20988;SDS011;10653;47.052;15.410;2023-05-13T01:31:58;1.80;;;1.70;;
20988;SDS011;10653;47.052;15.410;2023-05-13T01:34:25;1.60;;;1.50;;
20988;SDS011;10653;47.052;15.410;2023-05-13T01:36:52;1.50;;;1.40;;
20988;SDS011;10653;47.052;15.410;2023-05-13T01:39:18;1.60;;;1.50;;
20988;SDS011;10653;47.052;15.410;2023-05-13T01:41:44;1.87;;;1.67;;
20988;SDS011;10653;47.052;15.410;2023-05-13T01:44:11;2.27;;;1.57;;
20988;SDS011;10653;47.052;15.410;2023-05-13T01:46:37;1.90;;;1.70;;
20988;SDS011;10653;47.052;15.410;2023-05-13T01:49:03;1.87;;;1.40;;
20988;SDS011;10653;47.052;15.410;2023-05-13T01:51:31;1.87;;;1.73;;
20988;SDS011;10653;47.052;15.410;2023-05-13T01:53:57;1.73;;;1.63;;
20988;SDS011;10653;47.052;15.410;2023-05-13T01:56:23;2.70;;;1.90;;
20988;SDS011;10653;47.052;15.410;2023-05-13T01:58:50;1.60;;;1.50;;
20988;SDS011;10653;47.052;15.410;2023-05-13T02:01:16;1.83;;;1.70;;
20988;SDS011;10653;47.052;15.410;2023-05-13T02:03:42;2.63;;;1.60;;
20988;SDS011;10653;47.052;15.410;2023-05-13T02:06:09;1.50;;;1.40;;
20988;SDS011;10653;47.052;15.410;2023-05-13T02:08:35;1.60;;;1.50;;
20988;SDS011;10653;47.052;15.410;2023-05-13T02:11:01;1.10;;;1.00;;
20988;SDS011;10653;47.052;15.410;2023-05-13T02:13:27;1.37;;;1.23;;
20988;SDS011;10653;47.052;15.410;2023-05-13T02:15:53;1.63;;;1.47;;
20988;SDS011;10653;47.052;15.410;2023-05-13T02:18:19;1.47;;;1.37;;
20988;SDS011;10653;47.052;15.410;2023-05-13T02:20:46;1.70;;;1.53;;
20988;SDS011;10653;47.052;15.410;2023-05-13T02:23:12;1.13;;;1.07;;
20988;SDS011;10653;47.052;15.410;2023-05-13T02:25:41;2.43;;;1.20;;
20988;SDS011;10653;47.052;15.410;2023-05-13T02:28:08;1.20;;;1.10;;
20988;SDS011;10653;47.052;15.410;2023-05-13T02:30:34;1.50;;;1.40;;
20988;SDS011;10653;47.052;15.410;2023-05-13T02:33:00;2.20;;;2.00;;
20988;SDS011;10653;47.052;15.410;2023-05-13T02:35:26;1.47;;;1.37;;
20988;SDS011;10653;47.052;15.410;2023-05-13T02:37:54;1.80;;;1.43;;
20988;SDS011;10653;47.052;15.410;2023-05-13T02:40:20;1.10;;;1.00;;
20988;SDS011;10653;47.052;15.410;2023-05-13T02:42:46;1.23;;;1.13;;
20988;SDS011;10653;47.052;15.410;2023-05-13T02:45:12;1.53;;;1.10;;
20988;SDS011;10653;47.052;15.410;2023-05-13T02:47:38;1.17;;;1.07;;
20988;SDS011;10653;47.052;15.410;2023-05-13T02:50:05;1.10;;;1.00;;
20988;SDS011;10653;47.052;15.410;2023-05-13T02:52:32;1.30;;;1.20;;
20988;SDS011;10653;47.052;15.410;2023-05-13T02:55:02;1.50;;;1.30;;
20988;SDS011;10653;47.052;15.410;2023-05-13T02:57:29;1.50;;;1.33;;
20988;SDS011;10653;47.052;15.410;2023-05-13T02:59:55;1.13;;;1.03;;
20988;SDS011;10653;47.052;15.410;2023-05-13T03:02:21;1.10;;;1.00;;
20988;SDS011;10653;47.052;15.410;2023-05-13T03:04:47;1.60;;;1.50;;
20988;SDS011;10653;47.052;15.410;2023-05-13T03:07:13;1.07;;;1.00;;
20988;SDS011;10653;47.052;15.410;2023-05-13T03:09:39;1.53;;;1.43;;
20988;SDS011;10653;47.052;15.410;2023-05-13T03:12:06;1.30;;;1.20;;
20988;SDS011;10653;47.052;15.410;2023-05-13T03:14:32;1.40;;;1.30;;
20988;SDS011;10653;47.052;15.410;2023-05-13T03:17:00;1.83;;;1.30;;
20988;SDS011;10653;47.052;15.410;2023-05-13T03:19:26;1.57;;;1.47;;
20988;SDS011;10653;47.052;15.410;2023-05-13T03:21:52;1.87;;;1.43;;
20988;SDS011;10653;47.052;15.410;2023-05-13T03:24:18;1.33;;;1.23;;
20988;SDS011;10653;47.052;15.410;2023-05-13T03:26:44;2.23;;;2.03;;
20988;SDS011;10653;47.052;15.410;2023-05-13T03:29:10;2.27;;;2.07;;
20988;SDS011;10653;47.052;15.410;2023-05-13T03:31:36;2.17;;;1.93;;
20988;SDS011;10653;47.052;15.410;2023-05-13T03:34:02;2.00;;;1.80;;
20988;SDS011;10653;47.052;15.410;2023-05-13T03:36:28;1.60;;;1.50;;
20988;SDS011;10653;47.052;15.410;2023-05-13T03:38:56;2.13;;;1.53;;
20988;SDS011;10653;47.052;15.410;2023-05-13T03:41:22;2.70;;;1.63;;
20988;SDS011;10653;47.052;15.410;2023-05-13T03:43:48;1.77;;;1.60;;
20988;SDS011;10653;47.052;15.410;2023-05-13T03:46:14;1.77;;;1.67;;
20988;SDS011;10653;47.052;15.410;2023-05-13T03:48:40;2.53;;;2.30;;
20988;SDS011;10653;47.052;15.410;2023-05-13T03:51:06;2.30;;;2.10;;
20988;SDS011;10653;47.052;15.410;2023-05-13T03:53:32;2.90;;;2.20;;
20988;SDS011;10653;47.052;15.410;2023-05-13T03:55:58;2.10;;;1.90;;
20988;SDS011;10653;47.052;15.410;2023-05-13T03:58:24;2.73;;;1.80;;
20988;SDS011;10653;47.052;15.410;2023-05-13T04:00:50;2.57;;;1.90;;
20988;SDS011;10653;47.052;15.410;2023-05-13T04:03:16;1.67;;;1.57;;
20988;SDS011;10653;47.052;15.410;2023-05-13T04:05:44;1.83;;;1.73;;
20988;SDS011;10653;47.052;15.410;2023-05-13T04:08:10;2.13;;;2.03;;
20988;SDS011;10653;47.052;15.410;2023-05-13T04:10:36;2.70;;;2.50;;
20988;SDS011;10653;47.052;15.410;2023-05-13T04:13:02;1.70;;;1.60;;
20988;SDS011;10653;47.052;15.410;2023-05-13T04:15:28;1.60;;;1.50;;
20988;SDS011;10653;47.052;15.410;2023-05-13T04:17:58;1.90;;;1.80;;
20988;SDS011;10653;47.052;15.410;2023-05-13T04:20:24;2.30;;;2.10;;
20988;SDS011;10653;47.052;15.410;2023-05-13T04:22:50;6.03;;;5.43;;
20988;SDS011;10653;47.052;15.410;2023-05-13T04:25:16;2.70;;;2.27;;
20988;SDS011;10653;47.052;15.410;2023-05-13T04:27:42;2.30;;;2.10;;
20988;SDS011;10653;47.052;15.410;2023-05-13T04:30:11;2.63;;;1.70;;
20988;SDS011;10653;47.052;15.410;2023-05-13T04:32:37;2.37;;;2.27;;
20988;SDS011;10653;47.052;15.410;2023-05-13T04:35:04;3.10;;;2.90;;
20988;SDS011;10653;47.052;15.410;2023-05-13T04:37:30;2.40;;;2.20;;
20988;SDS011;10653;47.052;15.410;2023-05-13T04:39:56;2.10;;;2.00;;
20988;SDS011;10653;47.052;15.410;2023-05-13T04:42:22;2.60;;;2.40;;
20988;SDS011;10653;47.052;15.410;2023-05-13T04:44:48;2.43;;;2.23;;
20988;SDS011;10653;47.052;15.410;2023-05-13T04:47:14;3.07;;;2.70;;
20988;SDS011;10653;47.052;15.410;2023-05-13T04:49:40;2.53;;;2.33;;
20988;SDS011;10653;47.052;15.410;2023-05-13T04:52:06;3.30;;;2.60;;
20988;SDS011;10653;47.052;15.410;2023-05-13T04:54:33;3.30;;;3.00;;
20988;SDS011;10653;47.052;15.410;2023-05-13T04:57:00;3.00;;;2.80;;
20988;SDS011;10653;47.052;15.410;2023-05-13T04:59:26;2.87;;;2.67;;
20988;SDS011;10653;47.052;15.410;2023-05-13T05:01:52;5.20;;;3.00;;
20988;SDS011;10653;47.052;15.410;2023-05-13T05:04:18;3.20;;;2.90;;
20988;SDS011;10653;47.052;15.410;2023-05-13T05:06:44;4.40;;;4.00;;
20988;SDS011;10653;47.052;15.410;2023-05-13T05:09:10;4.07;;;3.77;;
20988;SDS011;10653;47.052;15.410;2023-05-13T05:11:37;5.77;;;5.33;;
20988;SDS011;10653;47.052;15.410;2023-05-13T05:14:03;5.33;;;4.93;;
20988;SDS011;10653;47.052;15.410;2023-05-13T05:16:29;5.63;;;5.13;;
20988;SDS011;10653;47.052;15.410;2023-05-13T05:18:55;5.53;;;5.03;;
20988;SDS011;10653;47.052;15.410;2023-05-13T05:21:21;6.23;;;5.73;;
20988;SDS011;10653;47.052;15.410;2023-05-13T05:23:47;6.93;;;6.30;;
20988;SDS011;10653;47.052;15.410;2023-05-13T05:26:13;6.10;;;5.60;;
20988;SDS011;10653;47.052;15.410;2023-05-13T05:28:40;6.03;;;5.53;;
20988;SDS011;10653;47.052;15.410;2023-05-13T05:31:07;5.37;;;4.90;;
20988;SDS011;10653;47.052;15.410;2023-05-13T05:33:33;6.33;;;5.83;;
20988;SDS011;10653;47.052;15.410;2023-05-13T05:36:00;6.70;;;6.10;;
20988;SDS011;10653;47.052;15.410;2023-05-13T05:38:26;6.50;;;5.47;;
20988;SDS011;10653;47.052;15.410;2023-05-13T05:40:52;6.13;;;5.63;;
20988;SDS011;10653;47.052;15.410;2023-05-13T05:43:18;6.80;;;6.20;;
20988;SDS011;10653;47.052;15.410;2023-05-13T05:45:44;8.83;;;7.20;;
20988;SDS011;10653;47.052;15.410;2023-05-13T05:48:10;7.10;;;6.40;;
20988;SDS011;10653;47.052;15.410;2023-05-13T05:50:36;7.40;;;6.70;;
20988;SDS011;10653;47.052;15.410;2023-05-13T05:53:02;8.00;;;6.97;;
20988;SDS011;10653;47.052;15.410;2023-05-13T05:55:28;8.30;;;7.50;;
20988;SDS011;10653;47.052;15.410;2023-05-13T05:57:57;8.03;;;7.23;;
20988;SDS011;10653;47.052;15.410;2023-05-13T06:00:28;9.40;;;8.37;;
20988;SDS011;10653;47.052;15.410;2023-05-13T06:02:54;9.50;;;8.63;;
20988;SDS011;10653;47.052;15.410;2023-05-13T06:05:23;8.50;;;7.70;;
20988;SDS011;10653;47.052;15.410;2023-05-13T06:07:49;10.53;;;9.47;;
20988;SDS011;10653;47.052;15.410;2023-05-13T06:10:15;10.00;;;9.00;;
20988;SDS011;10653;47.052;15.410;2023-05-13T06:12:41;12.50;;;9.83;;
20988;SDS011;10653;47.052;15.410;2023-05-13T06:15:07;10.97;;;9.87;;
20988;SDS011;10653;47.052;15.410;2023-05-13T06:17:37;11.23;;;10.23;;
20988;SDS011;10653;47.052;15.410;2023-05-13T06:20:04;10.90;;;9.40;;
20988;SDS011;10653;47.052;15.410;2023-05-13T06:22:30;10.63;;;9.30;;
20988;SDS011;10653;47.052;15.410;2023-05-13T06:24:56;10.47;;;9.47;;
20988;SDS011;10653;47.052;15.410;2023-05-13T06:27:22;11.70;;;10.63;;
20988;SDS011;10653;47.052;15.410;2023-05-13T06:29:48;10.33;;;9.33;;
20988;SDS011;10653;47.052;15.410;2023-05-13T06:32:15;10.30;;;9.30;;
20988;SDS011;10653;47.052;15.410;2023-05-13T06:34:41;10.47;;;9.40;;
20988;SDS011;10653;47.052;15.410;2023-05-13T06:37:12;12.37;;;10.77;;
20988;SDS011;10653;47.052;15.410;2023-05-13T06:39:38;10.53;;;9.47;;
20988;SDS011;10653;47.052;15.410;2023-05-13T06:42:04;11.67;;;10.43;;
20988;SDS011;10653;47.052;15.410;2023-05-13T06:44:31;10.13;;;9.23;;
20988;SDS011;10653;47.052;15.410;2023-05-13T06:46:57;10.10;;;9.10;;
20988;SDS011;10653;47.052;15.410;2023-05-13T06:49:23;10.87;;;9.87;;
20988;SDS011;10653;47.052;15.410;2023-05-13T06:51:49;11.20;;;10.00;;
20988;SDS011;10653;47.052;15.410;2023-05-13T06:54:15;10.67;;;9.67;;
20988;SDS011;10653;47.052;15.410;2023-05-13T06:56:41;11.70;;;10.57;;
20988;SDS011;10653;47.052;15.410;2023-05-13T06:59:07;10.90;;;9.70;;
20988;SDS011;10653;47.052;15.410;2023-05-13T07:01:33;9.73;;;8.73;;
20988;SDS011;10653;47.052;15.410;2023-05-13T07:03:59;11.73;;;10.57;;
20988;SDS011;10653;47.052;15.410;2023-05-13T07:06:25;11.63;;;10.50;;
20988;SDS011;10653;47.052;15.410;2023-05-13T07:08:51;11.10;;;10.10;;
20988;SDS011;10653;47.052;15.410;2023-05-13T07:11:17;14.00;;;12.10;;
20988;SDS011;10653;47.052;15.410;2023-05-13T07:13:43;10.53;;;9.63;;
20988;SDS011;10653;47.052;15.410;2023-05-13T07:16:09;11.20;;;10.10;;
20988;SDS011;10653;47.052;15.410;2023-05-13T07:18:35;10.83;;;9.73;;
20988;SDS011;10653;47.052;15.410;2023-05-13T07:21:01;10.43;;;9.30;;
20988;SDS011;10653;47.052;15.410;2023-05-13T07:23:28;9.87;;;8.97;;
20988;SDS011;10653;47.052;15.410;2023-05-13T07:25:55;9.47;;;8.47;;
20988;SDS011;10653;47.052;15.410;2023-05-13T07:28:21;8.13;;;7.43;;
20988;SDS011;10653;47.052;15.410;2023-05-13T07:30:47;8.37;;;7.63;;
20988;SDS011;10653;47.052;15.410;2023-05-13T07:33:13;7.80;;;7.00;;
20988;SDS011;10653;47.052;15.410;2023-05-13T07:35:39;7.40;;;6.80;;
20988;SDS011;10653;47.052;15.410;2023-05-13T07:38:06;7.70;;;7.00;;
20988;SDS011;10653;47.052;15.410;2023-05-13T07:40:34;7.50;;;6.90;;
20988;SDS011;10653;47.052;15.410;2023-05-13T07:43:00;7.00;;;6.30;;
20988;SDS011;10653;47.052;15.410;2023-05-13T07:45:26;7.23;;;6.53;;
20988;SDS011;10653;47.052;15.410;2023-05-13T07:47:52;6.67;;;6.07;;
20988;SDS011;10653;47.052;15.410;2023-05-13T07:50:18;6.23;;;5.63;;
20988;SDS011;10653;47.052;15.410;2023-05-13T07:52:45;6.20;;;5.70;;
20988;SDS011;10653;47.052;15.410;2023-05-13T07:55:13;6.00;;;5.47;;
20988;SDS011;10653;47.052;15.410;2023-05-13T07:57:39;5.07;;;4.67;;
20988;SDS011;10653;47.052;15.410;2023-05-13T08:00:05;5.60;;;5.10;;
20988;SDS011;10653;47.052;15.410;2023-05-13T08:02:31;6.10;;;5.50;;
20988;SDS011;10653;47.052;15.410;2023-05-13T08:04:59;5.33;;;4.83;;
20988;SDS011;10653;47.052;15.410;2023-05-13T08:07:25;5.57;;;5.03;;
20988;SDS011;10653;47.052;15.410;2023-05-13T08:09:51;5.93;;;5.17;;
20988;SDS011;10653;47.052;15.410;2023-05-13T08:12:17;4.43;;;4.03;;
20988;SDS011;10653;47.052;15.410;2023-05-13T08:14:43;5.70;;;5.27;;
20988;SDS011;10653;47.052;15.410;2023-05-13T08:17:09;6.03;;;5.53;;
20988;SDS011;10653;47.052;15.410;2023-05-13T08:19:36;6.40;;;5.80;;
20988;SDS011;10653;47.052;15.410;2023-05-13T08:22:02;5.23;;;4.83;;
20988;SDS011;10653;47.052;15.410;2023-05-13T08:24:28;5.10;;;4.60;;
20988;SDS011;10653;47.052;15.410;2023-05-13T08:26:54;4.60;;;4.20;;
20988;SDS011;10653;47.052;15.410;2023-05-13T08:29:20;4.90;;;4.40;;
20988;SDS011;10653;47.052;15.410;2023-05-13T08:31:46;4.70;;;4.20;;
20988;SDS011;10653;47.052;15.410;2023-05-13T08:34:12;5.97;;;5.47;;
20988;SDS011;10653;47.052;15.410;2023-05-13T08:36:39;5.60;;;5.10;;
20988;SDS011;10653;47.052;15.410;2023-05-13T08:39:05;5.37;;;4.87;;
20988;SDS011;10653;47.052;15.410;2023-05-13T08:41:31;4.43;;;4.03;;
20988;SDS011;10653;47.052;15.410;2023-05-13T08:43:59;3.57;;;3.37;;
20988;SDS011;10653;47.052;15.410;2023-05-13T08:46:28;4.20;;;3.80;;
20988;SDS011;10653;47.052;15.410;2023-05-13T08:48:56;4.03;;;3.73;;
20988;SDS011;10653;47.052;15.410;2023-05-13T08:51:23;4.13;;;3.83;;
20988;SDS011;10653;47.052;15.410;2023-05-13T08:53:50;3.33;;;3.03;;
20988;SDS011;10653;47.052;15.410;2023-05-13T08:56:17;3.30;;;3.03;;
20988;SDS011;10653;47.052;15.410;2023-05-13T08:58:43;3.57;;;2.87;;
20988;SDS011;10653;47.052;15.410;2023-05-13T09:01:09;3.27;;;2.97;;
20988;SDS011;10653;47.052;15.410;2023-05-13T09:03:35;3.37;;;3.07;;
20988;SDS011;10653;47.052;15.410;2023-05-13T09:06:06;2.97;;;2.60;;
20988;SDS011;10653;47.052;15.410;2023-05-13T09:08:32;3.30;;;2.67;;
20988;SDS011;10653;47.052;15.410;2023-05-13T09:10:59;3.10;;;2.90;;
20988;SDS011;10653;47.052;15.410;2023-05-13T09:13:25;3.37;;;3.07;;
20988;SDS011;10653;47.052;15.410;2023-05-13T09:15:51;2.53;;;2.33;;
20988;SDS011;10653;47.052;15.410;2023-05-13T09:18:17;3.00;;;2.80;;
20988;SDS011;10653;47.052;15.410;2023-05-13T09:20:43;3.40;;;2.90;;
20988;SDS011;10653;47.052;15.410;2023-05-13T09:23:09;4.13;;;3.73;;
20988;SDS011;10653;47.052;15.410;2023-05-13T09:25:36;3.03;;;2.83;;
20988;SDS011;10653;47.052;15.410;2023-05-13T09:28:03;3.47;;;3.10;;
20988;SDS011;10653;47.052;15.410;2023-05-13T09:30:32;3.80;;;3.50;;
20988;SDS011;10653;47.052;15.410;2023-05-13T09:35:36;4.87;;;4.47;;
20988;SDS011;10653;47.052;15.410;2023-05-13T09:38:13;4.33;;;3.93;;
20988;SDS011;10653;47.052;15.410;2023-05-13T09:40:39;5.07;;;4.57;;
20988;SDS011;10653;47.052;15.410;2023-05-13T09:43:05;5.90;;;5.40;;
20988;SDS011;10653;47.052;15.410;2023-05-13T09:45:33;5.50;;;5.00;;
20988;SDS011;10653;47.052;15.410;2023-05-13T09:47:59;5.93;;;5.30;;
20988;SDS011;10653;47.052;15.410;2023-05-13T09:50:25;5.43;;;4.70;;
20988;SDS011;10653;47.052;15.410;2023-05-13T09:52:52;4.90;;;4.43;;
20988;SDS011;10653;47.052;15.410;2023-05-13T09:55:18;5.20;;;4.80;;
20988;SDS011;10653;47.052;15.410;2023-05-13T09:57:44;5.37;;;4.90;;
20988;SDS011;10653;47.052;15.410;2023-05-13T10:00:11;5.23;;;4.80;;
20988;SDS011;10653;47.052;15.410;2023-05-13T10:02:37;3.97;;;3.63;;
20988;SDS011;10653;47.052;15.410;2023-05-13T10:05:04;4.37;;;3.97;;
20988;SDS011;10653;47.052;15.410;2023-05-13T10:07:30;3.87;;;3.57;;
20988;SDS011;10653;47.052;15.410;2023-05-13T10:09:59;4.37;;;3.97;;
20988;SDS011;10653;47.052;15.410;2023-05-13T10:12:26;3.90;;;3.60;;
20988;SDS011;10653;47.052;15.410;2023-05-13T10:14:53;3.50;;;3.20;;
20988;SDS011;10653;47.052;15.410;2023-05-13T10:17:23;4.53;;;4.13;;
20988;SDS011;10653;47.052;15.410;2023-05-13T10:19:50;3.90;;;3.60;;
20988;SDS011;10653;47.052;15.410;2023-05-13T10:22:26;3.57;;;3.27;;
20988;SDS011;10653;47.052;15.410;2023-05-13T10:24:54;3.07;;;2.70;;
20988;SDS011;10653;47.052;15.410;2023-05-13T10:27:21;3.27;;;2.97;;
20988;SDS011;10653;47.052;15.410;2023-05-13T10:29:49;3.50;;;3.20;;
20988;SDS011;10653;47.052;15.410;2023-05-13T10:32:18;3.20;;;2.90;;
20988;SDS011;10653;47.052;15.410;2023-05-13T10:34:44;2.77;;;2.57;;
20988;SDS011;10653;47.052;15.410;2023-05-13T10:42:40;3.10;;;2.63;;
20988;SDS011;10653;47.052;15.410;2023-05-13T10:45:07;2.80;;;2.60;;
20988;SDS011;10653;47.052;15.410;2023-05-13T10:47:33;3.00;;;2.80;;
20988;SDS011;10653;47.052;15.410;2023-05-13T10:50:03;2.90;;;2.70;;
20988;SDS011;10653;47.052;15.410;2023-05-13T10:52:47;3.27;;;2.90;;
20988;SDS011;10653;47.052;15.410;2023-05-13T10:55:18;3.07;;;2.87;;
20988;SDS011;10653;47.052;15.410;2023-05-13T10:58:04;3.60;;;3.30;;
20988;SDS011;10653;47.052;15.410;2023-05-13T11:00:32;3.17;;;2.97;;
20988;SDS011;10653;47.052;15.410;2023-05-13T11:03:15;3.90;;;3.60;;
20988;SDS011;10653;47.052;15.410;2023-05-13T11:05:58;3.30;;;3.10;;
20988;SDS011;10653;47.052;15.410;2023-05-13T11:08:43;5.70;;;4.27;;
20988;SDS011;10653;47.052;15.410;2023-05-13T11:11:16;5.07;;;4.67;;
20988;SDS011;10653;47.052;15.410;2023-05-13T11:13:43;5.40;;;4.90;;
20988;SDS011;10653;47.052;15.410;2023-05-13T11:16:10;5.80;;;5.30;;
20988;SDS011;10653;47.052;15.410;2023-05-13T11:18:37;6.30;;;5.80;;
20988;SDS011;10653;47.052;15.410;2023-05-13T11:21:03;8.00;;;6.77;;
20988;SDS011;10653;47.052;15.410;2023-05-13T11:23:30;8.20;;;7.40;;
20988;SDS011;10653;47.052;15.410;2023-05-13T11:28:55;9.03;;;7.90;;
20988;SDS011;10653;47.052;15.410;2023-05-13T11:31:21;9.20;;;8.10;;
20988;SDS011;10653;47.052;15.410;2023-05-13T11:36:34;10.93;;;9.90;;
20988;SDS011;10653;47.052;15.410;2023-05-13T11:39:16;10.70;;;9.17;;
20988;SDS011;10653;47.052;15.410;2023-05-13T11:41:44;11.73;;;10.53;;
20988;SDS011;10653;47.052;15.410;2023-05-13T11:44:11;11.17;;;9.67;;
20988;SDS011;10653;47.052;15.410;2023-05-13T11:46:37;12.57;;;11.30;;
20988;SDS011;10653;47.052;15.410;2023-05-13T11:49:03;13.43;;;12.00;;
20988;SDS011;10653;47.052;15.410;2023-05-13T11:51:29;13.30;;;11.10;;
20988;SDS011;10653;47.052;15.410;2023-05-13T11:53:59;13.20;;;11.80;;
20988;SDS011;10653;47.052;15.410;2023-05-13T11:56:26;12.30;;;10.77;;
20988;SDS011;10653;47.052;15.410;2023-05-13T11:58:55;13.97;;;12.30;;
20988;SDS011;10653;47.052;15.410;2023-05-13T12:01:21;15.90;;;12.17;;
20988;SDS011;10653;47.052;15.410;2023-05-13T12:03:49;12.80;;;10.73;;
20988;SDS011;10653;47.052;15.410;2023-05-13T12:06:16;13.70;;;11.40;;
20988;SDS011;10653;47.052;15.410;2023-05-13T12:08:43;14.70;;;11.80;;
20988;SDS011;10653;47.052;15.410;2023-05-13T12:11:09;12.00;;;10.77;;
20988;SDS011;10653;47.052;15.410;2023-05-13T12:13:37;12.77;;;11.37;;
20988;SDS011;10653;47.052;15.410;2023-05-13T12:16:04;14.20;;;12.03;;
20988;SDS011;10653;47.052;15.410;2023-05-13T12:18:30;12.40;;;10.87;;
20988;SDS011;10653;47.052;15.410;2023-05-13T12:20:57;13.37;;;11.83;;
20988;SDS011;10653;47.052;15.410;2023-05-13T12:23:23;16.20;;;12.50;;
20988;SDS011;10653;47.052;15.410;2023-05-13T12:25:49;13.77;;;11.30;;
20988;SDS011;10653;47.052;15.410;2023-05-13T12:28:22;12.57;;;11.20;;
20988;SDS011;10653;47.052;15.410;2023-05-13T12:31:02;13.27;;;11.37;;
20988;SDS011;10653;47.052;15.410;2023-05-13T12:33:50;12.67;;;11.27;;
20988;SDS011;10653;47.052;15.410;2023-05-13T12:41:30;13.77;;;11.20;;
20988;SDS011;10653;47.052;15.410;2023-05-13T12:43:57;12.50;;;10.97;;
20988;SDS011;10653;47.052;15.410;2023-05-13T12:46:24;12.00;;;10.73;;
20988;SDS011;10653;47.052;15.410;2023-05-13T12:48:54;13.33;;;11.70;;
20988;SDS011;10653;47.052;15.410;2023-05-13T12:51:20;11.40;;;9.80;;
20988;SDS011;10653;47.052;15.410;2023-05-13T12:53:46;11.53;;;10.30;;
20988;SDS011;10653;47.052;15.410;2023-05-13T12:56:12;13.73;;;12.10;;
20988;SDS011;10653;47.052;15.410;2023-05-13T12:58:39;11.93;;;9.87;;
20988;SDS011;10653;47.052;15.410;2023-05-13T13:01:05;9.70;;;8.80;;
20988;SDS011;10653;47.052;15.410;2023-05-13T13:03:31;10.57;;;9.07;;
20988;SDS011;10653;47.052;15.410;2023-05-13T13:05:58;10.20;;;9.17;;
20988;SDS011;10653;47.052;15.410;2023-05-13T13:08:24;10.37;;;9.30;;
20988;SDS011;10653;47.052;15.410;2023-05-13T13:10:51;11.17;;;9.50;;
20988;SDS011;10653;47.052;15.410;2023-05-13T13:13:17;10.27;;;9.27;;
20988;SDS011;10653;47.052;15.410;2023-05-13T13:15:43;10.60;;;9.60;;
20988;SDS011;10653;47.052;15.410;2023-05-13T13:18:09;9.00;;;7.97;;
20988;SDS011;10653;47.052;15.410;2023-05-13T13:20:35;8.50;;;7.70;;
20988;SDS011;10653;47.052;15.410;2023-05-13T13:23:01;9.70;;;8.70;;
20988;SDS011;10653;47.052;15.410;2023-05-13T13:25:27;9.80;;;8.80;;
20988;SDS011;10653;47.052;15.410;2023-05-13T13:27:53;9.37;;;8.47;;
20988;SDS011;10653;47.052;15.410;2023-05-13T13:30:20;8.70;;;8.00;;
20988;SDS011;10653;47.052;15.410;2023-05-13T13:32:46;10.47;;;8.23;;
20988;SDS011;10653;47.052;15.410;2023-05-13T13:35:12;9.00;;;8.10;;
20988;SDS011;10653;47.052;15.410;2023-05-13T13:37:38;9.43;;;8.43;;
20988;SDS011;10653;47.052;15.410;2023-05-13T13:40:04;8.87;;;8.07;;
20988;SDS011;10653;47.052;15.410;2023-05-13T13:42:30;8.80;;;7.90;;
20988;SDS011;10653;47.052;15.410;2023-05-13T13:44:56;8.00;;;7.20;;
20988;SDS011;10653;47.052;15.410;2023-05-13T13:47:22;8.23;;;7.43;;
20988;SDS011;10653;47.052;15.410;2023-05-13T13:49:48;8.00;;;6.93;;
20988;SDS011;10653;47.052;15.410;2023-05-13T13:52:15;8.27;;;7.53;;
20988;SDS011;10653;47.052;15.410;2023-05-13T13:54:41;6.90;;;6.30;;
20988;SDS011;10653;47.052;15.410;2023-05-13T13:57:07;10.40;;;6.10;;
20988;SDS011;10653;47.052;15.410;2023-05-13T13:59:33;8.60;;;7.70;;
20988;SDS011;10653;47.052;15.410;2023-05-13T14:02:00;6.43;;;5.83;;
20988;SDS011;10653;47.052;15.410;2023-05-13T14:04:25;7.07;;;6.37;;
20988;SDS011;10653;47.052;15.410;2023-05-13T14:06:54;7.23;;;6.53;;
20988;SDS011;10653;47.052;15.410;2023-05-13T14:09:20;8.70;;;8.00;;
20988;SDS011;10653;47.052;15.410;2023-05-13T14:11:46;8.40;;;7.57;;
20988;SDS011;10653;47.052;15.410;2023-05-13T14:14:12;7.63;;;6.90;;
20988;SDS011;10653;47.052;15.410;2023-05-13T14:16:38;9.17;;;8.33;;
20988;SDS011;10653;47.052;15.410;2023-05-13T14:19:04;9.50;;;8.60;;
20988;SDS011;10653;47.052;15.410;2023-05-13T14:21:30;9.70;;;8.80;;
20988;SDS011;10653;47.052;15.410;2023-05-13T14:23:56;8.07;;;7.37;;
20988;SDS011;10653;47.052;15.410;2023-05-13T14:26:22;8.00;;;7.30;;
20988;SDS011;10653;47.052;15.410;2023-05-13T14:28:48;8.53;;;7.63;;
20988;SDS011;10653;47.052;15.410;2023-05-13T14:31:14;9.23;;;8.33;;
20988;SDS011;10653;47.052;15.410;2023-05-13T14:33:40;8.30;;;7.40;;
20988;SDS011;10653;47.052;15.410;2023-05-13T14:36:06;8.10;;;6.87;;
20988;SDS011;10653;47.052;15.410;2023-05-13T14:38:35;7.37;;;6.67;;
20988;SDS011;10653;47.052;15.410;2023-05-13T14:41:01;7.40;;;6.67;;
20988;SDS011;10653;47.052;15.410;2023-05-13T14:43:27;7.70;;;6.83;;
20988;SDS011;10653;47.052;15.410;2023-05-13T14:45:53;7.70;;;6.90;;
20988;SDS011;10653;47.052;15.410;2023-05-13T14:48:19;8.30;;;6.00;;
20988;SDS011;10653;47.052;15.410;2023-05-13T14:50:45;10.90;;;6.50;;
20988;SDS011;10653;47.052;15.410;2023-05-13T14:53:11;6.90;;;5.60;;
20988;SDS011;10653;47.052;15.410;2023-05-13T14:55:37;7.63;;;6.93;;
20988;SDS011;10653;47.052;15.410;2023-05-13T14:58:03;11.30;;;7.77;;
20988;SDS011;10653;47.052;15.410;2023-05-13T15:00:32;9.40;;;7.47;;